Search for airport 
image banner adimage banner adimage banner ad
image banner ad

2NV8 - Mercy Air-Pahrump

Located in Pahrump, United States

ICAO - 2NV8, IATA -

Data provided by Airmate  

General information

Coordinates: N36°11'31" W115°59'9"
Elevation is 2650 feet MSL.
 
View others Airports in Nevada

Operational data

Special qualification required
Current time UTC:
Current local time:
Weather at : KINS - Creech Afb ( 52 km )
METAR: KINS 292111Z AUTO 29015G19KT 10SM CLR 36/09 A2996 RMK AO2 WSHFT 05 SLP089 $
TAF: TAF KINS 292101Z 2921/3103 VRB20G35KT 9999 VCTS BKN100CB QNH2992INS TEMPO 2921/3000 TS SCT100CB TEMPO 3000/3002 VRB20G45KT 1000 BLDU VCTS BECMG 3010/3011 10009KT 9999 NSW FEW100 SCT250 QNH3000INS BECMG 3014/3015 11010G18KT 9999 SCT100 SCT250 QNH2999INS BECMG 3018/3019 13012G25KT 9999 BKN100 510009 QNH2998INS TS OMTNS TEMPO 3021/3101 VRB20G40KT VCTS BKN100CB TX38/2923Z TN25/3013Z
View NOTAMs / SUP AIP / TFR affecting this airport [VIEW]
Communications frequencies: [VIEW]

Runways:

Airport contact information

Address: Pahrump United States

Satellite view of 2NV8